sensor_id;sensor_type;location;lat;lon;timestamp;P1;durP1;ratioP1;P2;durP2;ratioP2
62929;SDS011;49036;42.782;23.108;2023-02-14T00:02:06;33.67;;;15.48;;
62929;SDS011;49036;42.782;23.108;2023-02-14T00:04:32;33.13;;;16.25;;
62929;SDS011;49036;42.782;23.108;2023-02-14T00:06:58;31.48;;;14.77;;
62929;SDS011;49036;42.782;23.108;2023-02-14T00:09:25;33.28;;;13.32;;
62929;SDS011;49036;42.782;23.108;2023-02-14T00:11:51;29.23;;;15.32;;
62929;SDS011;49036;42.782;23.108;2023-02-14T00:14:17;29.35;;;15.15;;
62929;SDS011;49036;42.782;23.108;2023-02-14T00:17:01;26.25;;;14.48;;
62929;SDS011;49036;42.782;23.108;2023-02-14T00:19:27;30.58;;;13.63;;
62929;SDS011;49036;42.782;23.108;2023-02-14T00:21:53;25.90;;;13.38;;
62929;SDS011;49036;42.782;23.108;2023-02-14T00:24:21;31.70;;;14.02;;
62929;SDS011;49036;42.782;23.108;2023-02-14T00:26:49;28.17;;;14.10;;
62929;SDS011;49036;42.782;23.108;2023-02-14T00:31:41;33.28;;;14.82;;
62929;SDS011;49036;42.782;23.108;2023-02-14T00:34:08;35.97;;;15.05;;
62929;SDS011;49036;42.782;23.108;2023-02-14T00:36:34;34.33;;;18.40;;
62929;SDS011;49036;42.782;23.108;2023-02-14T00:39:04;30.77;;;15.68;;
62929;SDS011;49036;42.782;23.108;2023-02-14T00:41:31;33.72;;;17.00;;
62929;SDS011;49036;42.782;23.108;2023-02-14T00:43:57;32.95;;;15.82;;
62929;SDS011;49036;42.782;23.108;2023-02-14T00:46:23;37.00;;;17.90;;
62929;SDS011;49036;42.782;23.108;2023-02-14T00:48:49;35.15;;;15.90;;
62929;SDS011;49036;42.782;23.108;2023-02-14T00:51:15;38.47;;;15.98;;
62929;SDS011;49036;42.782;23.108;2023-02-14T00:53:43;40.83;;;17.73;;
62929;SDS011;49036;42.782;23.108;2023-02-14T00:56:10;40.10;;;17.60;;
62929;SDS011;49036;42.782;23.108;2023-02-14T00:58:36;35.05;;;14.48;;
62929;SDS011;49036;42.782;23.108;2023-02-14T01:01:01;33.88;;;15.32;;
62929;SDS011;49036;42.782;23.108;2023-02-14T01:03:28;35.95;;;16.20;;
62929;SDS011;49036;42.782;23.108;2023-02-14T01:05:53;37.40;;;15.88;;
62929;SDS011;49036;42.782;23.108;2023-02-14T01:08:19;34.53;;;15.57;;
62929;SDS011;49036;42.782;23.108;2023-02-14T01:10:45;38.97;;;16.35;;
62929;SDS011;49036;42.782;23.108;2023-02-14T01:13:11;32.25;;;17.45;;
62929;SDS011;49036;42.782;23.108;2023-02-14T01:15:38;36.08;;;17.25;;
62929;SDS011;49036;42.782;23.108;2023-02-14T01:18:05;37.03;;;18.02;;
62929;SDS011;49036;42.782;23.108;2023-02-14T01:20:30;31.13;;;14.10;;
62929;SDS011;49036;42.782;23.108;2023-02-14T01:22:56;32.97;;;16.45;;
62929;SDS011;49036;42.782;23.108;2023-02-14T01:25:22;42.85;;;20.02;;
62929;SDS011;49036;42.782;23.108;2023-02-14T01:27:47;35.50;;;16.13;;
62929;SDS011;49036;42.782;23.108;2023-02-14T01:30:13;36.78;;;18.15;;
62929;SDS011;49036;42.782;23.108;2023-02-14T01:32:39;33.33;;;17.85;;
62929;SDS011;49036;42.782;23.108;2023-02-14T01:35:06;35.45;;;16.73;;
62929;SDS011;49036;42.782;23.108;2023-02-14T01:37:33;29.75;;;15.10;;
62929;SDS011;49036;42.782;23.108;2023-02-14T01:39:58;43.47;;;18.77;;
62929;SDS011;49036;42.782;23.108;2023-02-14T01:42:24;33.55;;;18.42;;
62929;SDS011;49036;42.782;23.108;2023-02-14T01:44:53;33.90;;;17.92;;
62929;SDS011;49036;42.782;23.108;2023-02-14T01:47:21;40.50;;;19.50;;
62929;SDS011;49036;42.782;23.108;2023-02-14T01:49:48;33.20;;;17.73;;
62929;SDS011;49036;42.782;23.108;2023-02-14T01:52:18;41.15;;;18.75;;
62929;SDS011;49036;42.782;23.108;2023-02-14T01:54:51;32.83;;;15.68;;
62929;SDS011;49036;42.782;23.108;2023-02-14T01:57:23;34.47;;;16.00;;
62929;SDS011;49036;42.782;23.108;2023-02-14T01:59:56;34.35;;;17.58;;
62929;SDS011;49036;42.782;23.108;2023-02-14T02:02:44;31.60;;;16.50;;
62929;SDS011;49036;42.782;23.108;2023-02-14T02:05:10;25.50;;;14.30;;
62929;SDS011;49036;42.782;23.108;2023-02-14T02:07:37;29.48;;;16.33;;
62929;SDS011;49036;42.782;23.108;2023-02-14T02:10:05;35.38;;;18.35;;
62929;SDS011;49036;42.782;23.108;2023-02-14T02:12:32;35.15;;;17.17;;
62929;SDS011;49036;42.782;23.108;2023-02-14T02:15:02;37.65;;;17.45;;
62929;SDS011;49036;42.782;23.108;2023-02-14T02:34:51;38.78;;;16.15;;
62929;SDS011;49036;42.782;23.108;2023-02-14T02:37:46;29.10;;;16.92;;
62929;SDS011;49036;42.782;23.108;2023-02-14T02:42:52;34.80;;;17.52;;
62929;SDS011;49036;42.782;23.108;2023-02-14T02:48:34;33.58;;;14.88;;
62929;SDS011;49036;42.782;23.108;2023-02-14T02:51:10;32.15;;;16.52;;
62929;SDS011;49036;42.782;23.108;2023-02-14T02:54:04;31.25;;;13.88;;
62929;SDS011;49036;42.782;23.108;2023-02-14T02:56:38;25.00;;;12.00;;
62929;SDS011;49036;42.782;23.108;2023-02-14T02:59:15;30.25;;;14.57;;
62929;SDS011;49036;42.782;23.108;2023-02-14T03:04:43;26.05;;;14.82;;
62929;SDS011;49036;42.782;23.108;2023-02-14T03:07:18;35.53;;;14.85;;
62929;SDS011;49036;42.782;23.108;2023-02-14T03:15:02;34.25;;;13.63;;
62929;SDS011;49036;42.782;23.108;2023-02-14T03:23:12;37.58;;;16.80;;
62929;SDS011;49036;42.782;23.108;2023-02-14T03:28:27;35.17;;;16.35;;
62929;SDS011;49036;42.782;23.108;2023-02-14T03:31:03;35.03;;;15.00;;
62929;SDS011;49036;42.782;23.108;2023-02-14T03:33:46;36.85;;;14.82;;
62929;SDS011;49036;42.782;23.108;2023-02-14T03:36:19;32.72;;;15.85;;
62929;SDS011;49036;42.782;23.108;2023-02-14T03:39:31;34.28;;;17.23;;
62929;SDS011;49036;42.782;23.108;2023-02-14T03:41:45;39.75;;;17.23;;
62929;SDS011;49036;42.782;23.108;2023-02-14T03:44:16;40.45;;;17.33;;
62929;SDS011;49036;42.782;23.108;2023-02-14T03:46:49;31.67;;;15.85;;
62929;SDS011;49036;42.782;23.108;2023-02-14T03:49:22;34.97;;;12.95;;
62929;SDS011;49036;42.782;23.108;2023-02-14T03:51:53;32.58;;;15.88;;
62929;SDS011;49036;42.782;23.108;2023-02-14T03:54:21;35.42;;;15.95;;
62929;SDS011;49036;42.782;23.108;2023-02-14T03:56:56;34.70;;;14.25;;
62929;SDS011;49036;42.782;23.108;2023-02-14T03:59:38;32.70;;;14.77;;
62929;SDS011;49036;42.782;23.108;2023-02-14T04:02:18;29.00;;;14.38;;
62929;SDS011;49036;42.782;23.108;2023-02-14T04:05:09;31.45;;;15.43;;
62929;SDS011;49036;42.782;23.108;2023-02-14T04:07:47;24.13;;;12.65;;
62929;SDS011;49036;42.782;23.108;2023-02-14T04:10:15;25.38;;;13.38;;
62929;SDS011;49036;42.782;23.108;2023-02-14T04:12:41;28.40;;;14.88;;
62929;SDS011;49036;42.782;23.108;2023-02-14T04:15:07;31.77;;;13.45;;
62929;SDS011;49036;42.782;23.108;2023-02-14T04:17:33;33.40;;;15.48;;
62929;SDS011;49036;42.782;23.108;2023-02-14T04:20:17;37.83;;;15.07;;
62929;SDS011;49036;42.782;23.108;2023-02-14T04:22:42;24.42;;;13.93;;
62929;SDS011;49036;42.782;23.108;2023-02-14T04:25:10;26.55;;;15.45;;
62929;SDS011;49036;42.782;23.108;2023-02-14T04:27:36;22.63;;;14.25;;
62929;SDS011;49036;42.782;23.108;2023-02-14T04:30:02;22.20;;;11.82;;
62929;SDS011;49036;42.782;23.108;2023-02-14T04:32:28;28.50;;;10.90;;
62929;SDS011;49036;42.782;23.108;2023-02-14T04:34:53;14.80;;;8.75;;
62929;SDS011;49036;42.782;23.108;2023-02-14T04:37:19;32.40;;;14.68;;
62929;SDS011;49036;42.782;23.108;2023-02-14T04:39:45;27.65;;;10.75;;
62929;SDS011;49036;42.782;23.108;2023-02-14T04:42:10;30.75;;;15.35;;
62929;SDS011;49036;42.782;23.108;2023-02-14T04:44:36;25.83;;;12.25;;
62929;SDS011;49036;42.782;23.108;2023-02-14T04:47:05;23.65;;;12.98;;
62929;SDS011;49036;42.782;23.108;2023-02-14T04:49:31;23.58;;;12.70;;
62929;SDS011;49036;42.782;23.108;2023-02-14T04:51:57;31.83;;;12.75;;
62929;SDS011;49036;42.782;23.108;2023-02-14T04:54:23;31.13;;;11.40;;
62929;SDS011;49036;42.782;23.108;2023-02-14T04:56:49;32.92;;;13.27;;
62929;SDS011;49036;42.782;23.108;2023-02-14T04:59:14;23.05;;;11.32;;
62929;SDS011;49036;42.782;23.108;2023-02-14T05:01:40;25.60;;;13.70;;
62929;SDS011;49036;42.782;23.108;2023-02-14T05:04:06;23.90;;;11.32;;
62929;SDS011;49036;42.782;23.108;2023-02-14T05:06:32;22.42;;;11.10;;
62929;SDS011;49036;42.782;23.108;2023-02-14T05:08:58;27.10;;;11.98;;
62929;SDS011;49036;42.782;23.108;2023-02-14T05:11:23;18.15;;;11.00;;
62929;SDS011;49036;42.782;23.108;2023-02-14T05:13:49;17.73;;;8.13;;
62929;SDS011;49036;42.782;23.108;2023-02-14T05:16:15;26.35;;;13.90;;
62929;SDS011;49036;42.782;23.108;2023-02-14T05:18:40;20.38;;;12.60;;
62929;SDS011;49036;42.782;23.108;2023-02-14T05:21:06;28.58;;;13.52;;
62929;SDS011;49036;42.782;23.108;2023-02-14T05:23:31;24.58;;;13.68;;
62929;SDS011;49036;42.782;23.108;2023-02-14T05:25:57;24.45;;;12.40;;
62929;SDS011;49036;42.782;23.108;2023-02-14T05:28:24;22.38;;;11.63;;
62929;SDS011;49036;42.782;23.108;2023-02-14T05:30:50;27.17;;;12.45;;
62929;SDS011;49036;42.782;23.108;2023-02-14T05:33:16;23.80;;;10.98;;
62929;SDS011;49036;42.782;23.108;2023-02-14T05:35:42;28.25;;;11.68;;
62929;SDS011;49036;42.782;23.108;2023-02-14T05:38:08;25.80;;;13.15;;
62929;SDS011;49036;42.782;23.108;2023-02-14T05:40:34;23.63;;;12.15;;
62929;SDS011;49036;42.782;23.108;2023-02-14T05:42:59;29.40;;;14.88;;
62929;SDS011;49036;42.782;23.108;2023-02-14T05:45:25;22.42;;;12.30;;
62929;SDS011;49036;42.782;23.108;2023-02-14T05:47:51;24.17;;;10.90;;
62929;SDS011;49036;42.782;23.108;2023-02-14T05:50:16;22.40;;;11.20;;
62929;SDS011;49036;42.782;23.108;2023-02-14T05:52:43;29.65;;;13.63;;
62929;SDS011;49036;42.782;23.108;2023-02-14T05:55:09;25.98;;;11.65;;
62929;SDS011;49036;42.782;23.108;2023-02-14T05:57:35;23.52;;;12.02;;
62929;SDS011;49036;42.782;23.108;2023-02-14T06:00:00;22.73;;;13.05;;
62929;SDS011;49036;42.782;23.108;2023-02-14T06:02:26;31.60;;;13.77;;
62929;SDS011;49036;42.782;23.108;2023-02-14T06:04:52;31.25;;;13.63;;
62929;SDS011;49036;42.782;23.108;2023-02-14T06:07:17;31.02;;;14.07;;
62929;SDS011;49036;42.782;23.108;2023-02-14T06:09:42;36.55;;;15.25;;
62929;SDS011;49036;42.782;23.108;2023-02-14T06:12:08;33.88;;;16.17;;
62929;SDS011;49036;42.782;23.108;2023-02-14T06:14:34;37.13;;;17.17;;
62929;SDS011;49036;42.782;23.108;2023-02-14T06:16:59;39.10;;;18.90;;
62929;SDS011;49036;42.782;23.108;2023-02-14T06:19:25;36.00;;;15.27;;
62929;SDS011;49036;42.782;23.108;2023-02-14T06:21:50;29.38;;;13.98;;
62929;SDS011;49036;42.782;23.108;2023-02-14T06:24:16;37.75;;;16.45;;
62929;SDS011;49036;42.782;23.108;2023-02-14T06:26:41;36.63;;;16.67;;
62929;SDS011;49036;42.782;23.108;2023-02-14T06:29:07;22.98;;;13.20;;
62929;SDS011;49036;42.782;23.108;2023-02-14T06:31:33;35.10;;;17.27;;
62929;SDS011;49036;42.782;23.108;2023-02-14T06:33:58;32.30;;;15.65;;
62929;SDS011;49036;42.782;23.108;2023-02-14T06:36:24;23.65;;;13.35;;
62929;SDS011;49036;42.782;23.108;2023-02-14T06:38:50;27.80;;;14.30;;
62929;SDS011;49036;42.782;23.108;2023-02-14T06:41:15;32.25;;;16.42;;
62929;SDS011;49036;42.782;23.108;2023-02-14T06:43:42;28.67;;;16.40;;
62929;SDS011;49036;42.782;23.108;2023-02-14T06:46:08;25.35;;;13.40;;
62929;SDS011;49036;42.782;23.108;2023-02-14T06:48:34;25.92;;;13.23;;
62929;SDS011;49036;42.782;23.108;2023-02-14T06:51:00;26.85;;;14.48;;
62929;SDS011;49036;42.782;23.108;2023-02-14T06:53:25;28.13;;;12.00;;
62929;SDS011;49036;42.782;23.108;2023-02-14T06:55:51;35.95;;;14.40;;
62929;SDS011;49036;42.782;23.108;2023-02-14T06:58:17;31.55;;;13.88;;
62929;SDS011;49036;42.782;23.108;2023-02-14T07:00:43;30.17;;;13.25;;
62929;SDS011;49036;42.782;23.108;2023-02-14T07:03:08;33.40;;;16.17;;
62929;SDS011;49036;42.782;23.108;2023-02-14T07:05:34;34.75;;;15.88;;
62929;SDS011;49036;42.782;23.108;2023-02-14T07:07:59;30.77;;;14.15;;
62929;SDS011;49036;42.782;23.108;2023-02-14T07:12:51;23.03;;;12.60;;
62929;SDS011;49036;42.782;23.108;2023-02-14T07:15:17;23.45;;;12.23;;
62929;SDS011;49036;42.782;23.108;2023-02-14T07:17:42;30.67;;;12.73;;
62929;SDS011;49036;42.782;23.108;2023-02-14T07:20:08;25.63;;;12.98;;
62929;SDS011;49036;42.782;23.108;2023-02-14T07:22:37;30.25;;;14.68;;
62929;SDS011;49036;42.782;23.108;2023-02-14T07:25:03;26.30;;;12.68;;
62929;SDS011;49036;42.782;23.108;2023-02-14T07:27:30;24.52;;;13.23;;
62929;SDS011;49036;42.782;23.108;2023-02-14T07:29:56;33.60;;;14.32;;
62929;SDS011;49036;42.782;23.108;2023-02-14T07:32:22;24.35;;;13.32;;
62929;SDS011;49036;42.782;23.108;2023-02-14T07:34:47;18.85;;;10.68;;
62929;SDS011;49036;42.782;23.108;2023-02-14T07:37:16;27.02;;;13.00;;
62929;SDS011;49036;42.782;23.108;2023-02-14T07:39:42;30.77;;;13.90;;
62929;SDS011;49036;42.782;23.108;2023-02-14T07:44:34;23.73;;;13.77;;
62929;SDS011;49036;42.782;23.108;2023-02-14T07:47:02;27.75;;;9.85;;
62929;SDS011;49036;42.782;23.108;2023-02-14T07:49:27;27.48;;;11.88;;
62929;SDS011;49036;42.782;23.108;2023-02-14T07:51:53;26.88;;;12.23;;
62929;SDS011;49036;42.782;23.108;2023-02-14T07:54:18;27.17;;;13.75;;
62929;SDS011;49036;42.782;23.108;2023-02-14T07:56:44;21.80;;;12.57;;
62929;SDS011;49036;42.782;23.108;2023-02-14T07:59:09;27.58;;;13.02;;
62929;SDS011;49036;42.782;23.108;2023-02-14T08:01:35;18.65;;;10.52;;
62929;SDS011;49036;42.782;23.108;2023-02-14T08:04:00;21.00;;;10.63;;
62929;SDS011;49036;42.782;23.108;2023-02-14T08:06:25;20.85;;;11.07;;
62929;SDS011;49036;42.782;23.108;2023-02-14T08:08:51;18.80;;;9.80;;
62929;SDS011;49036;42.782;23.108;2023-02-14T08:11:17;20.67;;;13.05;;
62929;SDS011;49036;42.782;23.108;2023-02-14T08:14:01;27.83;;;10.68;;
62929;SDS011;49036;42.782;23.108;2023-02-14T08:16:28;22.67;;;11.32;;
62929;SDS011;49036;42.782;23.108;2023-02-14T08:18:56;15.40;;;10.23;;
62929;SDS011;49036;42.782;23.108;2023-02-14T08:21:21;29.08;;;12.55;;
62929;SDS011;49036;42.782;23.108;2023-02-14T08:23:47;26.48;;;12.70;;
62929;SDS011;49036;42.782;23.108;2023-02-14T08:26:12;18.15;;;9.48;;
62929;SDS011;49036;42.782;23.108;2023-02-14T08:28:38;24.00;;;10.32;;
62929;SDS011;49036;42.782;23.108;2023-02-14T08:31:04;21.35;;;10.68;;
62929;SDS011;49036;42.782;23.108;2023-02-14T08:33:29;23.17;;;12.45;;
62929;SDS011;49036;42.782;23.108;2023-02-14T08:35:55;19.45;;;10.30;;
62929;SDS011;49036;42.782;23.108;2023-02-14T08:38:20;25.05;;;11.02;;
62929;SDS011;49036;42.782;23.108;2023-02-14T08:40:46;26.25;;;11.52;;
62929;SDS011;49036;42.782;23.108;2023-02-14T08:43:12;27.45;;;11.45;;
62929;SDS011;49036;42.782;23.108;2023-02-14T08:45:37;25.25;;;11.30;;
62929;SDS011;49036;42.782;23.108;2023-02-14T08:48:05;26.15;;;12.85;;
62929;SDS011;49036;42.782;23.108;2023-02-14T08:50:34;21.35;;;11.32;;
62929;SDS011;49036;42.782;23.108;2023-02-14T08:53:04;24.08;;;12.15;;
62929;SDS011;49036;42.782;23.108;2023-02-14T08:55:32;25.73;;;12.32;;
62929;SDS011;49036;42.782;23.108;2023-02-14T08:57:58;29.27;;;11.10;;
62929;SDS011;49036;42.782;23.108;2023-02-14T09:00:24;28.73;;;13.05;;
62929;SDS011;49036;42.782;23.108;2023-02-14T09:02:50;31.35;;;13.05;;
62929;SDS011;49036;42.782;23.108;2023-02-14T09:05:17;21.48;;;10.63;;
62929;SDS011;49036;42.782;23.108;2023-02-14T09:07:43;32.22;;;13.82;;
62929;SDS011;49036;42.782;23.108;2023-02-14T09:10:09;32.38;;;14.23;;
62929;SDS011;49036;42.782;23.108;2023-02-14T09:12:37;36.42;;;12.98;;
62929;SDS011;49036;42.782;23.108;2023-02-14T09:15:03;33.95;;;13.68;;
62929;SDS011;49036;42.782;23.108;2023-02-14T09:17:29;28.65;;;12.63;;
62929;SDS011;49036;42.782;23.108;2023-02-14T09:19:54;31.77;;;14.23;;
62929;SDS011;49036;42.782;23.108;2023-02-14T09:22:20;21.63;;;11.13;;
62929;SDS011;49036;42.782;23.108;2023-02-14T09:24:46;28.90;;;12.70;;
62929;SDS011;49036;42.782;23.108;2023-02-14T09:27:11;31.15;;;16.10;;
62929;SDS011;49036;42.782;23.108;2023-02-14T09:29:37;33.65;;;15.93;;
62929;SDS011;49036;42.782;23.108;2023-02-14T09:32:02;24.50;;;13.40;;
62929;SDS011;49036;42.782;23.108;2023-02-14T09:34:29;34.30;;;14.75;;
62929;SDS011;49036;42.782;23.108;2023-02-14T09:36:58;26.75;;;12.88;;
62929;SDS011;49036;42.782;23.108;2023-02-14T09:39:23;28.67;;;13.95;;
62929;SDS011;49036;42.782;23.108;2023-02-14T09:44:53;39.53;;;13.57;;
62929;SDS011;49036;42.782;23.108;2023-02-14T09:47:35;27.48;;;13.18;;
62929;SDS011;49036;42.782;23.108;2023-02-14T09:53:03;29.08;;;12.98;;
62929;SDS011;49036;42.782;23.108;2023-02-14T09:58:22;18.50;;;8.18;;
62929;SDS011;49036;42.782;23.108;2023-02-14T10:00:55;17.50;;;9.38;;
62929;SDS011;49036;42.782;23.108;2023-02-14T10:03:34;17.58;;;9.30;;
62929;SDS011;49036;42.782;23.108;2023-02-14T10:11:26;21.17;;;11.52;;
62929;SDS011;49036;42.782;23.108;2023-02-14T10:16:31;16.33;;;7.25;;
62929;SDS011;49036;42.782;23.108;2023-02-14T10:27:11;24.52;;;11.50;;
62929;SDS011;49036;42.782;23.108;2023-02-14T10:29:50;17.15;;;10.43;;
62929;SDS011;49036;42.782;23.108;2023-02-14T10:32:17;25.92;;;10.90;;
62929;SDS011;49036;42.782;23.108;2023-02-14T10:34:49;16.50;;;10.75;;
62929;SDS011;49036;42.782;23.108;2023-02-14T10:48:16;15.25;;;9.15;;
62929;SDS011;49036;42.782;23.108;2023-02-14T10:51:02;18.98;;;7.57;;
62929;SDS011;49036;42.782;23.108;2023-02-14T10:53:57;14.13;;;8.43;;
62929;SDS011;49036;42.782;23.108;2023-02-14T11:02:09;17.83;;;10.35;;
62929;SDS011;49036;42.782;23.108;2023-02-14T11:04:38;16.10;;;9.10;;
62929;SDS011;49036;42.782;23.108;2023-02-14T11:07:15;17.85;;;9.00;;
62929;SDS011;49036;42.782;23.108;2023-02-14T11:09:43;13.45;;;6.93;;
62929;SDS011;49036;42.782;23.108;2023-02-14T11:12:09;13.40;;;7.28;;
62929;SDS011;49036;42.782;23.108;2023-02-14T11:14:35;20.10;;;9.30;;
62929;SDS011;49036;42.782;23.108;2023-02-14T11:17:21;16.10;;;8.35;;
62929;SDS011;49036;42.782;23.108;2023-02-14T11:19:56;18.23;;;9.63;;
62929;SDS011;49036;42.782;23.108;2023-02-14T11:22:29;13.75;;;6.35;;
62929;SDS011;49036;42.782;23.108;2023-02-14T11:27:49;8.75;;;6.03;;
62929;SDS011;49036;42.782;23.108;2023-02-14T11:30:21;17.33;;;7.90;;
62929;SDS011;49036;42.782;23.108;2023-02-14T11:32:55;10.93;;;8.07;;
62929;SDS011;49036;42.782;23.108;2023-02-14T11:35:22;16.25;;;8.82;;
62929;SDS011;49036;42.782;23.108;2023-02-14T11:37:52;17.58;;;8.40;;
62929;SDS011;49036;42.782;23.108;2023-02-14T11:40:25;16.02;;;7.38;;
62929;SDS011;49036;42.782;23.108;2023-02-14T11:42:54;15.35;;;8.48;;
62929;SDS011;49036;42.782;23.108;2023-02-14T11:50:40;12.18;;;7.63;;
62929;SDS011;49036;42.782;23.108;2023-02-14T11:53:11;11.48;;;7.18;;
62929;SDS011;49036;42.782;23.108;2023-02-14T11:55:44;12.48;;;7.15;;
62929;SDS011;49036;42.782;23.108;2023-02-14T11:58:25;13.60;;;7.93;;
62929;SDS011;49036;42.782;23.108;2023-02-14T12:04:14;13.20;;;7.80;;
62929;SDS011;49036;42.782;23.108;2023-02-14T12:06:44;12.10;;;7.18;;
62929;SDS011;49036;42.782;23.108;2023-02-14T12:12:01;16.42;;;7.80;;
62929;SDS011;49036;42.782;23.108;2023-02-14T12:14:29;11.93;;;6.60;;
62929;SDS011;49036;42.782;23.108;2023-02-14T12:19:33;13.38;;;7.30;;
62929;SDS011;49036;42.782;23.108;2023-02-14T12:22:07;9.02;;;6.97;;
62929;SDS011;49036;42.782;23.108;2023-02-14T12:27:31;16.38;;;5.90;;
62929;SDS011;49036;42.782;23.108;2023-02-14T12:30:21;15.00;;;7.75;;
62929;SDS011;49036;42.782;23.108;2023-02-14T12:32:49;16.23;;;7.50;;
62929;SDS011;49036;42.782;23.108;2023-02-14T12:36:00;11.70;;;7.47;;
62929;SDS011;49036;42.782;23.108;2023-02-14T12:38:17;11.65;;;6.90;;
62929;SDS011;49036;42.782;23.108;2023-02-14T12:43:49;18.60;;;9.38;;
62929;SDS011;49036;42.782;23.108;2023-02-14T12:46:33;16.65;;;9.18;;
62929;SDS011;49036;42.782;23.108;2023-02-14T12:54:58;12.98;;;7.75;;
62929;SDS011;49036;42.782;23.108;2023-02-14T13:00:28;13.90;;;7.95;;
62929;SDS011;49036;42.782;23.108;2023-02-14T13:20:04;14.38;;;8.20;;
62929;SDS011;49036;42.782;23.108;2023-02-14T13:22:40;15.75;;;6.68;;
62929;SDS011;49036;42.782;23.108;2023-02-14T13:25:12;20.75;;;8.38;;
62929;SDS011;49036;42.782;23.108;2023-02-14T13:27:47;17.45;;;9.77;;
62929;SDS011;49036;42.782;23.108;2023-02-14T13:30:33;16.85;;;9.77;;
62929;SDS011;49036;42.782;23.108;2023-02-14T13:33:06;15.73;;;8.30;;
62929;SDS011;49036;42.782;23.108;2023-02-14T13:35:32;13.45;;;8.20;;
62929;SDS011;49036;42.782;23.108;2023-02-14T13:38:00;13.02;;;8.50;;
62929;SDS011;49036;42.782;23.108;2023-02-14T13:40:29;21.92;;;10.25;;
62929;SDS011;49036;42.782;23.108;2023-02-14T13:42:56;15.43;;;7.85;;
62929;SDS011;49036;42.782;23.108;2023-02-14T13:48:05;12.88;;;8.65;;
62929;SDS011;49036;42.782;23.108;2023-02-14T13:50:36;16.10;;;7.90;;
62929;SDS011;49036;42.782;23.108;2023-02-14T13:53:27;16.30;;;7.65;;
62929;SDS011;49036;42.782;23.108;2023-02-14T13:55:59;17.48;;;9.38;;
62929;SDS011;49036;42.782;23.108;2023-02-14T13:58:27;13.15;;;8.45;;
62929;SDS011;49036;42.782;23.108;2023-02-14T14:00:53;13.70;;;7.53;;
62929;SDS011;49036;42.782;23.108;2023-02-14T14:21:37;16.70;;;7.75;;
62929;SDS011;49036;42.782;23.108;2023-02-14T14:24:16;14.15;;;7.80;;
62929;SDS011;49036;42.782;23.108;2023-02-14T14:26:45;15.95;;;8.95;;
62929;SDS011;49036;42.782;23.108;2023-02-14T14:32:15;16.25;;;9.57;;
62929;SDS011;49036;42.782;23.108;2023-02-14T14:34:52;12.38;;;6.60;;
62929;SDS011;49036;42.782;23.108;2023-02-14T14:37:22;13.77;;;7.68;;
62929;SDS011;49036;42.782;23.108;2023-02-14T14:39:59;14.77;;;8.60;;
62929;SDS011;49036;42.782;23.108;2023-02-14T14:42:29;14.70;;;8.43;;
62929;SDS011;49036;42.782;23.108;2023-02-14T14:45:02;13.90;;;9.15;;
62929;SDS011;49036;42.782;23.108;2023-02-14T14:47:37;18.35;;;10.38;;
62929;SDS011;49036;42.782;23.108;2023-02-14T14:50:07;16.70;;;9.82;;
62929;SDS011;49036;42.782;23.108;2023-02-14T14:52:47;17.20;;;8.88;;
62929;SDS011;49036;42.782;23.108;2023-02-14T14:55:16;19.13;;;7.88;;
62929;SDS011;49036;42.782;23.108;2023-02-14T14:57:48;12.20;;;6.47;;
62929;SDS011;49036;42.782;23.108;2023-02-14T15:00:22;13.07;;;8.65;;
62929;SDS011;49036;42.782;23.108;2023-02-14T15:08:13;11.48;;;7.18;;
62929;SDS011;49036;42.782;23.108;2023-02-14T15:11:22;17.98;;;9.23;;
62929;SDS011;49036;42.782;23.108;2023-02-14T15:14:05;16.95;;;8.80;;
62929;SDS011;49036;42.782;23.108;2023-02-14T15:16:43;16.65;;;9.85;;
62929;SDS011;49036;42.782;23.108;2023-02-14T15:24:43;16.05;;;8.15;;
62929;SDS011;49036;42.782;23.108;2023-02-14T15:27:13;11.45;;;6.88;;
62929;SDS011;49036;42.782;23.108;2023-02-14T15:29:51;10.85;;;7.53;;
62929;SDS011;49036;42.782;23.108;2023-02-14T15:32:24;8.10;;;5.20;;
62929;SDS011;49036;42.782;23.108;2023-02-14T15:34:54;16.73;;;8.43;;
62929;SDS011;49036;42.782;23.108;2023-02-14T15:37:20;20.27;;;9.10;;
62929;SDS011;49036;42.782;23.108;2023-02-14T15:39:53;14.77;;;7.85;;
62929;SDS011;49036;42.782;23.108;2023-02-14T15:44:50;15.65;;;8.75;;
62929;SDS011;49036;42.782;23.108;2023-02-14T15:48:14;17.60;;;8.75;;
62929;SDS011;49036;42.782;23.108;2023-02-14T15:50:48;14.50;;;8.70;;
62929;SDS011;49036;42.782;23.108;2023-02-14T15:53:26;12.80;;;7.53;;
62929;SDS011;49036;42.782;23.108;2023-02-14T15:56:05;9.48;;;6.25;;
62929;SDS011;49036;42.782;23.108;2023-02-14T15:58:34;18.10;;;8.73;;
62929;SDS011;49036;42.782;23.108;2023-02-14T16:01:02;16.33;;;8.18;;
62929;SDS011;49036;42.782;23.108;2023-02-14T16:03:31;15.20;;;8.85;;
62929;SDS011;49036;42.782;23.108;2023-02-14T16:06:01;15.85;;;7.72;;
62929;SDS011;49036;42.782;23.108;2023-02-14T16:08:34;13.10;;;7.75;;
62929;SDS011;49036;42.782;23.108;2023-02-14T16:11:03;14.25;;;8.73;;
62929;SDS011;49036;42.782;23.108;2023-02-14T16:13:33;16.73;;;9.55;;
62929;SDS011;49036;42.782;23.108;2023-02-14T16:16:01;12.82;;;6.50;;
62929;SDS011;49036;42.782;23.108;2023-02-14T16:18:36;11.57;;;6.70;;
62929;SDS011;49036;42.782;23.108;2023-02-14T16:21:09;15.40;;;7.90;;
62929;SDS011;49036;42.782;23.108;2023-02-14T16:23:36;17.92;;;9.57;;
62929;SDS011;49036;42.782;23.108;2023-02-14T16:26:02;12.80;;;7.97;;
62929;SDS011;49036;42.782;23.108;2023-02-14T16:28:31;21.35;;;9.57;;
62929;SDS011;49036;42.782;23.108;2023-02-14T16:30:57;14.65;;;7.57;;
62929;SDS011;49036;42.782;23.108;2023-02-14T16:33:29;10.73;;;6.57;;
62929;SDS011;49036;42.782;23.108;2023-02-14T16:36:05;19.67;;;9.55;;
62929;SDS011;49036;42.782;23.108;2023-02-14T16:38:40;14.82;;;9.13;;
62929;SDS011;49036;42.782;23.108;2023-02-14T16:41:17;14.23;;;8.13;;
62929;SDS011;49036;42.782;23.108;2023-02-14T16:43:44;23.05;;;10.20;;
62929;SDS011;49036;42.782;23.108;2023-02-14T16:46:14;17.83;;;9.02;;
62929;SDS011;49036;42.782;23.108;2023-02-14T16:48:42;16.83;;;8.73;;
62929;SDS011;49036;42.782;23.108;2023-02-14T16:53:36;20.55;;;8.93;;
62929;SDS011;49036;42.782;23.108;2023-02-14T16:56:02;19.75;;;9.35;;
62929;SDS011;49036;42.782;23.108;2023-02-14T16:58:30;16.98;;;8.80;;
62929;SDS011;49036;42.782;23.108;2023-02-14T17:00:58;17.20;;;8.65;;
62929;SDS011;49036;42.782;23.108;2023-02-14T17:03:24;18.50;;;10.50;;
62929;SDS011;49036;42.782;23.108;2023-02-14T17:05:49;18.55;;;10.88;;
62929;SDS011;49036;42.782;23.108;2023-02-14T17:08:15;20.65;;;10.40;;
62929;SDS011;49036;42.782;23.108;2023-02-14T17:10:41;21.60;;;10.93;;
62929;SDS011;49036;42.782;23.108;2023-02-14T17:13:08;15.57;;;8.32;;
62929;SDS011;49036;42.782;23.108;2023-02-14T17:15:34;20.30;;;10.93;;
62929;SDS011;49036;42.782;23.108;2023-02-14T17:18:02;12.68;;;7.13;;
62929;SDS011;49036;42.782;23.108;2023-02-14T17:20:31;21.35;;;10.23;;
62929;SDS011;49036;42.782;23.108;2023-02-14T17:22:57;17.60;;;9.85;;
62929;SDS011;49036;42.782;23.108;2023-02-14T17:25:23;20.13;;;9.52;;